Map

Track Data

SID SEASON NUMBER BASIN SUBBASIN NAME ISO_TIME NATURE LAT LON WMO_WIND WMO_PRES WMO_AGENCY TRACK_TYPE DIST2LAND LANDFALL IFLAG USA_AGENCY USA_ATCF_ID USA_LAT USA_LON USA_RECORD USA_STATUS USA_WIND USA_PRES USA_SSHS USA_R34_NE USA_R34_SE USA_R34_SW USA_R34_NW USA_R50_NE USA_R50_SE USA_R50_SW USA_R50_NW USA_R64_NE USA_R64_SE USA_R64_SW USA_R64_NW USA_POCI USA_ROCI USA_RMW USA_EYE TOKYO_LAT TOKYO_LON TOKYO_GRADE TOKYO_WIND TOKYO_PRES TOKYO_R50_DIR TOKYO_R50_LONG TOKYO_R50_SHORT TOKYO_R30_DIR TOKYO_R30_LONG TOKYO_R30_SHORT TOKYO_LAND CMA_LAT CMA_LON CMA_CAT CMA_WIND CMA_PRES HKO_LAT HKO_LON HKO_CAT HKO_WIND HKO_PRES NEWDELHI_LAT NEWDELHI_LON NEWDELHI_GRADE NEWDELHI_WIND NEWDELHI_PRES NEWDELHI_CI NEWDELHI_DP NEWDELHI_POCI REUNION_LAT REUNION_LON REUNION_TYPE REUNION_WIND REUNION_PRES REUNION_TNUM REUNION_CI REUNION_RMW REUNION_R34_NE REUNION_R34_SE REUNION_R34_SW REUNION_R34_NW REUNION_R50_NE REUNION_R50_SE REUNION_R50_SW REUNION_R50_NW REUNION_R64_NE REUNION_R64_SE REUNION_R64_SW REUNION_R64_NW BOM_LAT BOM_LON BOM_TYPE BOM_WIND BOM_PRES BOM_TNUM BOM_CI BOM_RMW BOM_R34_NE BOM_R34_SE BOM_R34_SW BOM_R34_NW BOM_R50_NE BOM_R50_SE BOM_R50_SW BOM_R50_NW BOM_R64_NE BOM_R64_SE BOM_R64_SW BOM_R64_NW BOM_ROCI BOM_POCI BOM_EYE BOM_POS_METHOD BOM_PRES_METHOD NADI_LAT NADI_LON NADI_CAT NADI_WIND NADI_PRES WELLINGTON_LAT WELLINGTON_LON WELLINGTON_WIND WELLINGTON_PRES DS824_LAT DS824_LON DS824_STAGE DS824_WIND DS824_PRES TD9636_LAT TD9636_LON TD9636_STAGE TD9636_WIND TD9636_PRES TD9635_LAT TD9635_LON TD9635_WIND TD9635_PRES TD9635_ROCI NEUMANN_LAT NEUMANN_LON NEUMANN_CLASS NEUMANN_WIND NEUMANN_PRES MLC_LAT MLC_LON MLC_CLASS MLC_WIND MLC_PRES USA_GUST BOM_GUST BOM_GUST_PER REUNION_GUST REUNION_GUST_PER USA_SEAHGT USA_SEARAD_NE USA_SEARAD_SE USA_SEARAD_SW USA_SEARAD_NW STORM_SPEED STORM_DIR
1906052S17056 1906 7 SI MM NOT_NAMED 1906-02-21 06:00:00 NR -16.9000 56.1000 reunion main 387 387 _____O________ -1 -16.9000 56.1000 99 9.90000 2 0
1906052S17056 1906 7 SI MM NOT_NAMED 1906-02-21 09:00:00 NR -16.8086 56.0960 main 397 397 _____P________ -1 -16.8086 56.0960 99 2 0
1906052S17056 1906 7 SI MM NOT_NAMED 1906-02-21 12:00:00 NR -16.7307 56.0864 main 408 408 _____P________ -1 -16.7307 56.0864 99 1 340
1906052S17056 1906 7 SI MM NOT_NAMED 1906-02-21 15:00:00 NR -16.6798 56.0657 main 408 408 _____P________ -1 -16.6798 56.0657 99 1 321
1906052S17056 1906 7 SI MM NOT_NAMED 1906-02-21 18:00:00 NR -16.6692 56.0284 main 411 411 _____P________ -1 -16.6692 56.0284 99 1 250
1906052S17056 1906 7 SI MM NOT_NAMED 1906-02-21 21:00:00 NR -16.7125 55.9689 main 411 405 _____P________ -1 -16.7125 55.9689 99 2 223
1906052S17056 1906 7 SI MM NOT_NAMED 1906-02-22 00:00:00 NR -16.8231 55.8815 main 405 390 _____P________ -1 -16.8231 55.8815 99 4 213
1906052S17056 1906 7 SI MM NOT_NAMED 1906-02-22 03:00:00 NR -17.0144 55.7605 main 390 366 _____P________ -1 -17.0144 55.7605 99 6 205
1906052S17056 1906 7 SI MM NOT_NAMED 1906-02-22 06:00:00 NR -17.3200 55.6400 reunion main 371 339 _____O____O___ -1 -17.3000 55.6000 99 9.90000 -17.4000 55.8000 7 9 204
1906052S17056 1906 7 SI MM NOT_NAMED 1906-02-22 09:00:00 NR -17.8083 55.3995 main 339 291 _____P____P___ -1 -17.6868 55.3970 99 -18.0512 55.4046 7 12 206
1906052S17056 1906 7 SI MM NOT_NAMED 1906-02-22 12:00:00 NR -18.3900 55.0947 main 291 229 _____P____P___ -1 -18.1562 55.1612 99 -18.7018 55.0061 7 14 207
1906052S17056 1906 7 SI MM NOT_NAMED 1906-02-22 15:00:00 NR -19.0173 54.7550 main 229 177 _____P____P___ -1 -18.6831 54.9054 99 -19.3514 54.6046 7 14 207
1906052S17056 1906 7 SI MM NOT_NAMED 1906-02-22 18:00:00 NR -19.6211 54.4214 main 182 144 _____P____O___ -1 -19.2422 54.6428 99 -20.0000 54.2000 7 12 204
1906052S17056 1906 7 SI MM NOT_NAMED 1906-02-22 21:00:00 NR -20.0918 54.2563 main 144 130 _____P____P___ -1 -19.8085 54.3870 99 -20.3750 54.1256 7 10 198
1906052S17056 1906 7 SI MM NOT_NAMED 1906-02-23 00:00:00 NR -20.5254 54.1085 main 132 122 _____P____P___ -1 -20.3568 54.1518 99 -20.7501 54.0507 7 9 198
1906052S17056 1906 7 SI MM NOT_NAMED 1906-02-23 03:00:00 NR -20.9499 53.9594 main 126 125 _____P____P___ -1 -20.8622 53.9513 99 -21.1251 53.9756 7 9 198
1906052S17056 1906 7 SI MM NOT_NAMED 1906-02-23 06:00:00 NR -21.3400 53.8200 reunion main 146 146 _____O____O___ -1 -21.3000 53.8000 99 9.90000 -21.5000 53.9000 7 7 198
1906052S17056 1906 7 SI MM NOT_NAMED 1906-02-23 09:00:00 NR -21.6515 53.7087 main 169 169 _____P________ -1 -21.6515 53.7087 99 7 6 193
1906052S17056 1906 7 SI MM NOT_NAMED 1906-02-23 12:00:00 NR -21.9222 53.6736 main 178 178 _____P________ -1 -21.9222 53.6736 99 7 5 183
1906052S17056 1906 7 SI MM NOT_NAMED 1906-02-23 15:00:00 NR -22.1240 53.6869 main 187 187 _____P________ -1 -22.1240 53.6869 99 7 4 172
1906052S17056 1906 7 SI MM NOT_NAMED 1906-02-23 18:00:00 NR -22.2683 53.7407 main 199 190 _____P________ -1 -22.2683 53.7407 99 3 151
1906052S17056 1906 7 SI MM NOT_NAMED 1906-02-23 21:00:00 NR -22.3666 53.8270 main 197 189 _____P________ -1 -22.3666 53.8270 99 2 132
1906052S17056 1906 7 SI MM NOT_NAMED 1906-02-24 00:00:00 NR -22.4303 53.9378 main 189 181 _____P________ -1 -22.4303 53.9378 99 2 115
1906052S17056 1906 7 SI MM NOT_NAMED 1906-02-24 03:00:00 NR -22.4709 54.0648 main 182 175 _____P________ -1 -22.4709 54.0648 99 3 106
1906052S17056 1906 7 SI MM NOT_NAMED 1906-02-24 06:00:00 NR -22.5000 54.2000 reunion main 175 _____O________ -1 -22.5000 54.2000 99 9.90000 3 103

About IBTrACS Database

This database is a web-friendly format of International Best Track Archive for Climate Stewardship (IBTrACS), a global best track data archive curated by NOAA dating back to 1842.

Updated: 2021-11-26